createdAt,value
2023-04-17T00:01:13.745Z,15.50
2023-04-17T00:03:41.648Z,16.33
2023-04-17T00:06:09.535Z,15.30
2023-04-17T00:08:37.302Z,14.10
2023-04-17T00:11:08.305Z,14.63
2023-04-17T00:13:37.123Z,13.77
2023-04-17T00:16:06.845Z,14.43
2023-04-17T00:18:34.672Z,14.00
2023-04-17T00:21:02.439Z,13.60
2023-04-17T00:23:30.270Z,11.87
2023-04-17T00:25:58.034Z,13.50
2023-04-17T00:28:25.865Z,12.17
2023-04-17T00:30:53.708Z,13.23
2023-04-17T00:33:22.903Z,12.37
2023-04-17T00:35:50.742Z,11.77
2023-04-17T00:38:18.835Z,12.80
2023-04-17T00:40:46.609Z,11.70
2023-04-17T00:43:14.446Z,11.37
2023-04-17T00:45:42.852Z,12.33
2023-04-17T00:48:13.174Z,11.67
2023-04-17T00:50:43.109Z,12.50
2023-04-17T00:53:11.049Z,10.53
2023-04-17T00:55:40.526Z,11.97
2023-04-17T00:58:08.700Z,11.37
2023-04-17T01:00:36.603Z,11.20
2023-04-17T01:03:05.232Z,12.27
2023-04-17T01:05:35.410Z,12.57
2023-04-17T01:08:04.881Z,11.40
2023-04-17T01:10:32.662Z,13.47
2023-04-17T01:13:03.947Z,13.40
2023-04-17T01:15:31.912Z,12.80
2023-04-17T01:17:59.974Z,11.93
2023-04-17T01:20:30.019Z,12.43
2023-04-17T01:22:58.087Z,13.27
2023-04-17T01:25:27.798Z,13.43
2023-04-17T01:27:56.389Z,13.73
2023-04-17T01:30:24.369Z,13.27
2023-04-17T01:32:54.290Z,12.33
2023-04-17T01:35:22.340Z,12.43
2023-04-17T01:37:50.421Z,13.60
2023-04-17T01:40:18.396Z,12.97
2023-04-17T01:42:47.571Z,13.80
2023-04-17T01:45:15.363Z,12.87
2023-04-17T01:47:43.230Z,12.80
2023-04-17T01:50:12.076Z,13.33
2023-04-17T01:52:39.999Z,13.13
2023-04-17T01:55:08.624Z,13.20
2023-04-17T01:57:36.694Z,13.40
2023-04-17T02:00:08.169Z,13.43
2023-04-17T02:02:36.070Z,14.03
2023-04-17T02:05:04.187Z,13.67
2023-04-17T02:07:32.071Z,13.53
2023-04-17T02:09:59.883Z,12.77
2023-04-17T02:12:27.665Z,13.63
2023-04-17T02:14:57.056Z,14.13
2023-04-17T02:17:26.392Z,13.23
2023-04-17T02:19:54.208Z,13.67
2023-04-17T02:22:21.981Z,13.40
2023-04-17T02:24:49.865Z,13.67
2023-04-17T02:27:17.905Z,15.53
2023-04-17T02:29:45.772Z,15.03
2023-04-17T02:32:13.609Z,12.67
2023-04-17T02:34:42.742Z,14.33
2023-04-17T02:37:10.701Z,14.67
2023-04-17T02:39:38.647Z,13.17
2023-04-17T02:42:06.579Z,14.57
2023-04-17T02:44:34.376Z,13.63
2023-04-17T02:47:02.363Z,14.10
2023-04-17T02:49:30.272Z,14.47
2023-04-17T02:51:59.502Z,12.37
2023-04-17T02:54:27.304Z,12.93
2023-04-17T02:56:58.382Z,14.03
2023-04-17T02:59:26.331Z,12.60
2023-04-17T03:01:54.350Z,13.10
2023-04-17T03:04:22.976Z,11.70
2023-04-17T03:06:51.548Z,12.10
2023-04-17T03:09:22.272Z,13.33
2023-04-17T03:11:50.466Z,12.30
2023-04-17T03:14:18.296Z,13.10
2023-04-17T03:16:46.209Z,12.30
2023-04-17T03:19:14.071Z,13.43
2023-04-17T03:21:42.049Z,11.47
2023-04-17T03:24:11.548Z,12.37
2023-04-17T03:26:40.704Z,12.47
2023-04-17T03:29:08.563Z,12.00
2023-04-17T03:31:36.400Z,11.60
2023-04-17T03:34:04.447Z,12.97
2023-04-17T03:36:32.396Z,11.87
2023-04-17T03:39:00.558Z,10.57
2023-04-17T03:41:28.366Z,10.27
2023-04-17T03:43:57.526Z,11.43
2023-04-17T03:46:25.417Z,12.27
2023-04-17T03:48:53.273Z,11.87
2023-04-17T03:51:21.053Z,10.33
2023-04-17T03:53:48.849Z,12.37
2023-04-17T03:56:16.665Z,11.40
2023-04-17T03:58:44.477Z,11.33
2023-04-17T04:01:14.734Z,10.87
2023-04-17T04:03:43.223Z,11.57
2023-04-17T04:06:11.372Z,10.87
2023-04-17T04:08:40.278Z,12.17
2023-04-17T04:11:08.265Z,11.47
2023-04-17T04:13:36.093Z,11.77
2023-04-17T04:16:03.995Z,13.77
2023-04-17T04:18:33.189Z,11.10
2023-04-17T04:21:01.028Z,12.03
2023-04-17T04:23:30.550Z,12.97
2023-04-17T04:26:01.613Z,12.43
2023-04-17T04:28:30.245Z,14.10
2023-04-17T04:30:58.763Z,12.13
2023-04-17T04:33:27.665Z,13.90
2023-04-17T04:36:01.655Z,14.27
2023-04-17T04:38:32.425Z,14.87
2023-04-17T04:41:06.103Z,14.47
2023-04-17T04:43:34.919Z,13.57
2023-04-17T04:46:02.776Z,15.23
2023-04-17T04:48:30.559Z,13.83
2023-04-17T04:50:59.823Z,14.93
2023-04-17T04:53:27.665Z,14.43
2023-04-17T04:55:55.452Z,22.47
2023-04-17T04:58:23.393Z,15.33
2023-04-17T05:00:51.263Z,14.97
2023-04-17T05:03:19.251Z,14.60
2023-04-17T05:05:47.181Z,13.87
2023-04-17T05:08:16.312Z,14.27
2023-04-17T05:10:46.007Z,14.67
2023-04-17T05:13:13.932Z,13.10
2023-04-17T05:15:42.419Z,13.53
2023-04-17T05:18:10.425Z,13.17
2023-04-17T05:20:38.676Z,14.30
2023-04-17T05:23:06.597Z,14.60
2023-04-17T05:25:35.725Z,14.13
2023-04-17T05:28:03.577Z,12.87
2023-04-17T05:30:31.362Z,14.87
2023-04-17T05:33:00.907Z,14.10
2023-04-17T05:35:28.918Z,12.47
2023-04-17T05:37:56.850Z,14.80
2023-04-17T05:40:24.767Z,15.00
2023-04-17T05:42:53.957Z,13.87
2023-04-17T05:45:24.214Z,14.77
2023-04-17T05:47:53.302Z,14.43
2023-04-17T05:50:21.259Z,14.00
2023-04-17T05:52:49.089Z,15.07
2023-04-17T05:55:16.926Z,13.93
2023-04-17T05:57:44.734Z,16.07
2023-04-17T06:00:15.476Z,13.77
2023-04-17T06:02:44.450Z,15.10
2023-04-17T06:05:12.551Z,14.87
2023-04-17T06:07:40.628Z,15.33
2023-04-17T06:10:09.744Z,14.73
2023-04-17T06:12:38.249Z,14.13
2023-04-17T06:15:09.081Z,15.40
2023-04-17T06:17:38.716Z,15.30
2023-04-17T06:20:10.308Z,14.27
2023-04-17T06:22:38.433Z,13.43
2023-04-17T06:25:07.464Z,14.40
2023-04-17T06:27:36.763Z,12.83
2023-04-17T06:30:06.094Z,12.80
2023-04-17T06:32:33.981Z,13.40
2023-04-17T06:35:03.175Z,13.67
2023-04-17T06:37:31.079Z,12.33
2023-04-17T06:39:58.890Z,12.80
2023-04-17T06:42:26.805Z,13.97
2023-04-17T06:44:55.063Z,12.97
2023-04-17T06:47:22.941Z,12.63
2023-04-17T06:49:50.970Z,12.30
2023-04-17T06:52:20.228Z,12.67
2023-04-17T06:54:48.087Z,11.70
2023-04-17T06:57:16.882Z,12.83
2023-04-17T06:59:44.685Z,12.40
2023-04-17T07:02:12.577Z,13.17
2023-04-17T07:04:40.477Z,11.07
2023-04-17T07:07:08.316Z,12.10
2023-04-17T07:09:37.837Z,13.30
2023-04-17T07:12:06.750Z,13.20
2023-04-17T07:14:35.358Z,13.40
2023-04-17T07:17:04.280Z,12.07
2023-04-17T07:19:32.107Z,11.17
2023-04-17T07:21:59.927Z,11.70
2023-04-17T07:24:27.731Z,11.97
2023-04-17T07:26:57.044Z,10.70
2023-04-17T07:29:24.887Z,11.03
2023-04-17T07:31:52.784Z,11.43
2023-04-17T07:34:21.793Z,11.27
2023-04-17T07:36:50.282Z,10.63
2023-04-17T07:39:18.078Z,11.30
2023-04-17T07:41:45.886Z,12.33
2023-04-17T07:44:15.053Z,10.87
2023-04-17T07:46:43.225Z,11.53
2023-04-17T07:49:12.345Z,10.97
2023-04-17T07:51:41.216Z,12.40
2023-04-17T07:54:09.162Z,11.70
2023-04-17T07:56:36.957Z,11.70
2023-04-17T07:59:04.828Z,11.20
2023-04-17T08:01:34.009Z,10.10
2023-04-17T08:04:02.364Z,9.40
2023-04-17T08:06:30.512Z,8.60
2023-04-17T08:08:59.917Z,9.43
2023-04-17T08:11:27.825Z,9.33
2023-04-17T08:13:56.240Z,8.30
2023-04-17T08:16:24.381Z,7.77
2023-04-17T08:18:53.622Z,8.40
2023-04-17T08:21:21.427Z,8.63
2023-04-17T08:23:49.256Z,8.83
2023-04-17T08:26:19.017Z,9.30
2023-04-17T08:28:47.094Z,8.97
2023-04-17T08:31:14.988Z,7.50
2023-04-17T08:33:42.838Z,8.30
2023-04-17T08:36:11.986Z,6.60
2023-04-17T08:38:39.849Z,7.03
2023-04-17T08:41:12.867Z,7.33
2023-04-17T08:43:42.307Z,7.17
2023-04-17T08:46:10.358Z,6.43
2023-04-17T08:48:38.228Z,5.17
2023-04-17T08:51:06.211Z,6.30
2023-04-17T08:53:35.346Z,5.80
2023-04-17T08:56:08.318Z,6.10
2023-04-17T08:58:37.452Z,5.10
2023-04-17T09:01:12.884Z,5.03
2023-04-17T09:03:42.992Z,5.23
2023-04-17T09:06:11.673Z,5.00
2023-04-17T09:08:54.718Z,4.43
2023-04-17T09:11:22.564Z,5.40
2023-04-17T09:13:50.451Z,5.17
2023-04-17T09:16:19.936Z,4.30
2023-04-17T09:18:49.388Z,4.50
2023-04-17T09:21:19.581Z,4.30
2023-04-17T09:23:51.038Z,4.80
2023-04-17T09:26:20.921Z,5.97
2023-04-17T09:29:04.023Z,4.67
2023-04-17T09:31:34.279Z,4.83
2023-04-17T09:34:04.203Z,4.50
2023-04-17T09:36:33.693Z,5.27
2023-04-17T09:39:04.748Z,5.63
2023-04-17T09:41:34.354Z,4.23
2023-04-17T09:44:05.412Z,5.13
2023-04-17T09:46:39.075Z,4.10
2023-04-17T09:49:12.008Z,4.10
2023-04-17T09:51:40.835Z,3.97
2023-04-17T09:54:11.396Z,4.03
2023-04-17T09:56:41.330Z,4.50
2023-04-17T09:59:09.860Z,5.27
2023-04-17T10:01:40.011Z,5.27
2023-04-17T10:04:08.270Z,5.17
2023-04-17T10:06:37.632Z,6.17
2023-04-17T10:09:06.046Z,6.03
2023-04-17T10:11:40.727Z,4.53
2023-04-17T10:14:13.171Z,5.13
2023-04-17T10:16:42.625Z,5.93
2023-04-17T10:19:30.980Z,7.23
2023-04-17T10:22:29.918Z,6.47
2023-04-17T10:25:20.933Z,6.37
2023-04-17T10:27:59.080Z,6.13
2023-04-17T10:30:53.807Z,7.00
2023-04-17T10:33:26.448Z,7.17
2023-04-17T10:35:54.732Z,7.57
2023-04-17T10:38:37.715Z,7.40
2023-04-17T10:41:09.361Z,5.10
2023-04-17T10:43:41.949Z,6.07
2023-04-17T10:46:12.407Z,10.97
2023-04-17T10:48:47.668Z,7.40
2023-04-17T10:51:40.956Z,8.80
2023-04-17T10:54:10.484Z,5.13
2023-04-17T10:56:39.707Z,5.17
2023-04-17T10:59:11.867Z,6.50
2023-04-17T11:01:57.945Z,5.90
2023-04-17T11:04:28.882Z,6.23
2023-04-17T11:06:57.009Z,6.40
2023-04-17T11:09:26.588Z,5.40
2023-04-17T11:11:55.492Z,5.10
2023-04-17T11:14:24.689Z,5.80
2023-04-17T11:16:53.310Z,4.73
2023-04-17T11:19:23.020Z,5.00
2023-04-17T11:21:52.329Z,5.50
2023-04-17T11:24:24.373Z,5.27
2023-04-17T11:26:52.174Z,4.73
2023-04-17T11:29:21.101Z,5.30
2023-04-17T11:31:53.656Z,4.60
2023-04-17T11:34:21.964Z,5.60
2023-04-17T11:36:50.411Z,5.30
2023-04-17T11:39:18.639Z,5.27
2023-04-17T11:41:46.984Z,4.13
2023-04-17T11:44:15.515Z,5.07
2023-04-17T11:46:43.460Z,4.67
2023-04-17T11:49:12.817Z,4.63
2023-04-17T11:51:40.875Z,4.50
2023-04-17T11:54:08.774Z,4.83
2023-04-17T11:56:36.951Z,4.57
2023-04-17T11:59:06.065Z,3.83
2023-04-17T12:01:33.970Z,3.97
2023-04-17T12:04:02.131Z,4.23
2023-04-17T12:06:38.924Z,4.20
2023-04-17T12:09:08.130Z,3.90
2023-04-17T12:11:36.744Z,3.50
2023-04-17T12:14:05.183Z,3.40
2023-04-17T12:16:33.241Z,3.50
2023-04-17T12:19:01.165Z,3.10
2023-04-17T12:21:28.975Z,3.77
2023-04-17T12:23:58.111Z,3.73
2023-04-17T12:26:26.004Z,3.27
2023-04-17T12:28:53.793Z,3.47
2023-04-17T12:31:21.603Z,3.60
2023-04-17T12:33:49.918Z,2.77
2023-04-17T12:36:17.765Z,3.57
2023-04-17T12:38:46.425Z,3.73
2023-04-17T12:41:15.580Z,4.40
2023-04-17T12:43:43.391Z,4.87
2023-04-17T12:46:11.206Z,4.17
2023-04-17T12:48:39.058Z,4.20
2023-04-17T12:51:06.995Z,4.83
2023-04-17T12:53:34.785Z,6.60
2023-04-17T12:56:02.669Z,5.23
2023-04-17T12:58:32.111Z,4.30
2023-04-17T13:00:59.896Z,4.27
2023-04-17T13:03:27.939Z,4.80
2023-04-17T13:05:55.913Z,4.60
2023-04-17T13:08:23.816Z,4.80
2023-04-17T13:10:51.732Z,4.57
2023-04-17T13:13:19.530Z,4.37
2023-04-17T13:15:49.103Z,4.43
2023-04-17T13:18:16.974Z,3.83
2023-04-17T13:20:44.800Z,4.43
2023-04-17T13:23:14.391Z,4.10
2023-04-17T13:25:42.430Z,3.40
2023-04-17T13:28:10.274Z,4.20
2023-04-17T13:30:38.178Z,3.70
2023-04-17T13:33:07.882Z,3.70
2023-04-17T13:35:35.840Z,4.07
2023-04-17T13:38:03.687Z,3.77
2023-04-17T13:40:31.599Z,3.20
2023-04-17T13:43:00.336Z,3.80
2023-04-17T13:45:28.204Z,2.57
2023-04-17T13:47:56.186Z,3.10
2023-04-17T13:50:25.343Z,3.17
2023-04-17T13:52:53.160Z,2.63
2023-04-17T13:55:20.977Z,3.17
2023-04-17T13:57:48.760Z,3.00
2023-04-17T14:00:18.296Z,3.03
2023-04-17T14:02:46.230Z,3.80
2023-04-17T14:05:14.373Z,2.53
2023-04-17T14:07:45.157Z,2.90
2023-04-17T14:10:13.117Z,2.80
2023-04-17T14:12:40.944Z,3.10
2023-04-17T14:15:09.725Z,2.93
2023-04-17T14:17:41.029Z,2.37
2023-04-17T14:20:10.247Z,2.77
2023-04-17T14:22:38.211Z,3.80
2023-04-17T14:25:08.234Z,4.03
2023-04-17T14:27:36.983Z,4.33
2023-04-17T14:30:05.496Z,4.73
2023-04-17T14:32:33.387Z,4.37
2023-04-17T14:35:01.220Z,5.03
2023-04-17T14:37:29.552Z,4.40
2023-04-17T14:39:57.374Z,4.30
2023-04-17T14:42:26.491Z,4.20
2023-04-17T14:44:54.346Z,3.63
2023-04-17T14:47:22.205Z,4.13
2023-04-17T14:49:50.068Z,3.60
2023-04-17T14:52:17.982Z,4.23
2023-04-17T14:54:45.769Z,3.50
2023-04-17T14:57:13.599Z,3.40
2023-04-17T14:59:44.353Z,4.70
2023-04-17T15:02:12.574Z,3.87
2023-04-17T15:04:42.288Z,3.10
2023-04-17T15:07:10.221Z,2.87
2023-04-17T15:09:38.034Z,2.83
2023-04-17T15:12:06.174Z,3.07
2023-04-17T15:14:33.965Z,2.70
2023-04-17T15:17:06.818Z,2.67
2023-04-17T15:19:34.992Z,3.43
2023-04-17T15:22:03.148Z,3.33
2023-04-17T15:24:32.570Z,3.23
2023-04-17T15:27:00.742Z,3.43
2023-04-17T15:29:28.664Z,3.53
2023-04-17T15:31:56.518Z,4.30
2023-04-17T15:34:25.870Z,4.27
2023-04-17T15:36:53.692Z,4.33
2023-04-17T15:39:21.685Z,4.17
2023-04-17T15:41:49.825Z,4.73
2023-04-17T15:44:17.691Z,3.87
2023-04-17T15:46:45.707Z,4.03
2023-04-17T15:49:13.570Z,3.70
2023-04-17T15:51:42.689Z,3.40
2023-04-17T15:54:11.946Z,2.00
2023-04-17T15:56:40.337Z,2.47
2023-04-17T15:59:08.145Z,2.77
2023-04-17T16:01:35.971Z,3.77
2023-04-17T16:04:03.966Z,3.70
2023-04-17T16:06:31.991Z,3.97
2023-04-17T16:09:01.209Z,4.40
2023-04-17T16:11:29.035Z,4.30
2023-04-17T16:13:56.897Z,3.70
2023-04-17T16:16:24.822Z,4.53
2023-04-17T16:18:52.654Z,4.50
2023-04-17T16:21:20.484Z,4.03
2023-04-17T16:23:49.494Z,4.73
2023-04-17T16:26:18.796Z,4.27
2023-04-17T16:28:46.713Z,4.30
2023-04-17T16:31:16.442Z,4.50
2023-04-17T16:33:45.021Z,4.83
2023-04-17T16:36:12.868Z,4.30
2023-04-17T16:38:40.674Z,5.30
2023-04-17T16:41:08.994Z,4.90
2023-04-17T16:43:38.277Z,4.97
2023-04-17T16:46:18.387Z,5.07
2023-04-17T16:48:50.606Z,4.90
2023-04-17T16:51:20.348Z,5.00
2023-04-17T16:53:48.593Z,4.13
2023-04-17T16:56:16.876Z,4.00
2023-04-17T16:58:46.082Z,4.47
2023-04-17T17:01:14.365Z,4.77
2023-04-17T17:03:43.279Z,4.80
2023-04-17T17:06:11.337Z,4.93
2023-04-17T17:08:39.305Z,4.43
2023-04-17T17:11:07.183Z,5.23
2023-04-17T17:13:34.990Z,5.60
2023-04-17T17:16:04.157Z,5.17
2023-04-17T17:18:32.075Z,5.13
2023-04-17T17:21:01.732Z,5.77
2023-04-17T17:23:29.551Z,6.27
2023-04-17T17:25:57.322Z,6.43
2023-04-17T17:28:25.200Z,6.13
2023-04-17T17:30:59.815Z,5.90
2023-04-17T17:33:29.211Z,6.37
2023-04-17T17:35:57.078Z,6.23
2023-04-17T17:38:25.257Z,6.57
2023-04-17T17:40:53.125Z,7.33
2023-04-17T17:43:20.951Z,7.53
2023-04-17T17:45:48.804Z,7.33
2023-04-17T17:48:18.071Z,6.90
2023-04-17T17:50:47.390Z,7.43
2023-04-17T17:53:16.949Z,7.27
2023-04-17T17:55:51.614Z,6.83
2023-04-17T17:58:21.030Z,7.77
2023-04-17T18:00:48.886Z,8.63
2023-04-17T18:03:17.049Z,10.97
2023-04-17T18:05:45.753Z,7.60
2023-04-17T18:08:15.211Z,7.27
2023-04-17T18:10:43.007Z,8.83
2023-04-17T18:13:11.775Z,7.00
2023-04-17T18:15:39.570Z,6.57
2023-04-17T18:18:07.430Z,8.33
2023-04-17T18:20:38.392Z,7.50
2023-04-17T18:23:06.218Z,7.80
2023-04-17T18:25:36.254Z,7.73
2023-04-17T18:28:04.415Z,8.27
2023-04-17T18:30:32.445Z,8.23
2023-04-17T18:33:00.355Z,9.23
2023-04-17T18:35:28.284Z,7.67
2023-04-17T18:37:56.452Z,8.53
2023-04-17T18:40:24.283Z,11.20
2023-04-17T18:42:53.424Z,9.70
2023-04-17T18:45:21.241Z,9.53
2023-04-17T18:47:49.033Z,9.20
2023-04-17T18:50:17.290Z,3.43
2023-04-17T18:52:48.737Z,3.23
2023-04-17T18:55:18.814Z,3.80
2023-04-17T18:57:46.632Z,5.33
2023-04-17T19:00:16.350Z,3.40
2023-04-17T19:02:44.221Z,3.20
2023-04-17T19:05:12.132Z,2.97
2023-04-17T19:07:40.049Z,3.17
2023-04-17T19:10:08.950Z,3.30
2023-04-17T19:12:37.064Z,3.00
2023-04-17T19:15:05.651Z,3.37
2023-04-17T19:17:34.890Z,3.40
2023-04-17T19:20:02.829Z,4.00
2023-04-17T19:22:30.717Z,4.37
2023-04-17T19:24:58.552Z,4.20
2023-04-17T19:27:27.218Z,5.33
2023-04-17T19:29:55.175Z,5.30
2023-04-17T19:32:22.987Z,5.00
2023-04-17T19:34:52.166Z,4.43
2023-04-17T19:37:19.966Z,5.10
2023-04-17T19:39:47.741Z,6.53
2023-04-17T19:42:15.583Z,5.20
2023-04-17T19:44:43.446Z,5.67
2023-04-17T19:47:11.378Z,6.13
2023-04-17T19:49:39.143Z,6.33
2023-04-17T19:52:08.269Z,5.90
2023-04-17T19:54:36.079Z,6.23
2023-04-17T19:57:04.016Z,6.50
2023-04-17T19:59:31.827Z,6.10
2023-04-17T20:01:59.680Z,7.20
2023-04-17T20:04:27.707Z,6.97
2023-04-17T20:06:55.803Z,8.30
2023-04-17T20:09:25.289Z,9.80
2023-04-17T20:11:53.121Z,8.77
2023-04-17T20:14:20.937Z,8.37
2023-04-17T20:16:50.035Z,8.00
2023-04-17T20:19:18.026Z,7.97
2023-04-17T20:21:46.896Z,8.50
2023-04-17T20:24:15.818Z,8.30
2023-04-17T20:26:45.174Z,8.47
2023-04-17T20:29:13.405Z,8.13
2023-04-17T20:31:41.459Z,8.10
2023-04-17T20:34:09.307Z,7.67
2023-04-17T20:36:37.115Z,8.23
2023-04-17T20:39:05.359Z,8.20
2023-04-17T20:41:33.181Z,8.97
2023-04-17T20:44:02.855Z,8.47
2023-04-17T20:46:31.568Z,8.27
2023-04-17T20:48:59.436Z,9.20
2023-04-17T20:51:27.317Z,8.90
2023-04-17T20:53:55.784Z,9.13
2023-04-17T20:56:23.956Z,8.60
2023-04-17T20:58:51.836Z,8.63
2023-04-17T21:01:21.345Z,8.80
2023-04-17T21:03:49.308Z,9.07
2023-04-17T21:06:17.761Z,9.80
2023-04-17T21:08:45.614Z,9.00
2023-04-17T21:11:13.409Z,9.10
2023-04-17T21:13:41.203Z,8.27
2023-04-17T21:16:11.459Z,8.47
2023-04-17T21:18:40.858Z,9.03
2023-04-17T21:21:08.658Z,8.43
2023-04-17T21:23:36.489Z,9.47
2023-04-17T21:26:04.924Z,8.93
2023-04-17T21:28:32.748Z,8.13
2023-04-17T21:31:00.517Z,8.90
2023-04-17T21:33:28.370Z,9.67
2023-04-17T21:35:57.475Z,10.53
2023-04-17T21:38:26.521Z,10.23
2023-04-17T21:40:54.311Z,8.70
2023-04-17T21:43:22.204Z,9.13
2023-04-17T21:45:50.900Z,8.57
2023-04-17T21:48:18.822Z,8.87
2023-04-17T21:50:46.612Z,7.30
2023-04-17T21:53:15.754Z,8.77
2023-04-17T21:55:43.524Z,8.70
2023-04-17T21:58:11.380Z,8.80
2023-04-17T22:00:44.550Z,8.33
2023-04-17T22:03:12.513Z,8.90
2023-04-17T22:05:40.785Z,8.33
2023-04-17T22:08:08.622Z,8.87
2023-04-17T22:10:37.853Z,8.93
2023-04-17T22:13:05.673Z,8.60
2023-04-17T22:15:33.429Z,9.13
2023-04-17T22:18:01.449Z,8.70
2023-04-17T22:20:29.346Z,9.90
2023-04-17T22:22:57.173Z,9.00
2023-04-17T22:25:24.984Z,8.53
2023-04-17T22:27:54.150Z,8.67
2023-04-17T22:30:22.196Z,7.57
2023-04-17T22:32:50.072Z,8.80
2023-04-17T22:35:18.175Z,8.57
2023-04-17T22:37:45.941Z,8.80
2023-04-17T22:40:14.522Z,8.77
2023-04-17T22:42:42.900Z,8.03
2023-04-17T22:45:12.107Z,8.97
2023-04-17T22:47:39.957Z,9.53
2023-04-17T22:50:10.534Z,8.33
2023-04-17T22:52:38.330Z,8.73
2023-04-17T22:55:07.175Z,8.57
2023-04-17T22:57:34.965Z,8.90
2023-04-17T23:00:03.790Z,8.00
2023-04-17T23:02:33.082Z,8.27
2023-04-17T23:05:00.956Z,8.97
2023-04-17T23:07:28.969Z,9.03
2023-04-17T23:09:56.764Z,9.00
2023-04-17T23:12:24.635Z,9.33
2023-04-17T23:14:52.419Z,8.90
2023-04-17T23:17:20.349Z,9.20
2023-04-17T23:19:49.684Z,7.77
2023-04-17T23:22:17.506Z,9.43
2023-04-17T23:24:45.507Z,8.97
2023-04-17T23:27:13.363Z,9.80
2023-04-17T23:29:41.144Z,9.23
2023-04-17T23:32:09.649Z,9.17
2023-04-17T23:34:37.904Z,9.47
2023-04-17T23:37:07.082Z,10.43
2023-04-17T23:39:35.719Z,10.80
2023-04-17T23:42:07.206Z,10.47
2023-04-17T23:44:35.581Z,11.27
2023-04-17T23:47:04.849Z,10.27
2023-04-17T23:49:32.753Z,11.20
2023-04-17T23:52:00.588Z,11.17
2023-04-17T23:54:29.819Z,11.70
2023-04-17T23:56:58.052Z,10.60
2023-04-17T23:59:25.908Z,11.80
